createdAt,value
2022-08-28T00:02:49.334Z,18.98
2022-08-28T00:07:53.987Z,16.60
2022-08-28T00:12:59.439Z,16.70
2022-08-28T00:18:04.073Z,19.75
2022-08-28T00:23:08.269Z,19.98
2022-08-28T00:28:24.085Z,15.55
2022-08-28T00:33:30.823Z,17.30
2022-08-28T00:38:34.202Z,15.32
2022-08-28T00:43:42.209Z,17.88
2022-08-28T00:48:45.601Z,15.60
2022-08-28T00:53:56.720Z,17.00
2022-08-28T00:59:08.405Z,16.88
2022-08-28T01:04:16.984Z,20.30
2022-08-28T01:09:21.155Z,17.52
2022-08-28T01:14:27.028Z,12.18
2022-08-28T01:19:33.060Z,11.05
2022-08-28T01:24:40.366Z,12.02
2022-08-28T01:29:45.205Z,12.38
2022-08-28T01:34:52.447Z,13.35
2022-08-28T01:39:57.797Z,14.70
2022-08-28T01:45:01.057Z,17.50
2022-08-28T01:50:05.705Z,20.30
2022-08-28T01:55:12.172Z,23.10
2022-08-28T02:00:16.811Z,23.20
2022-08-28T02:05:23.888Z,20.55
2022-08-28T02:10:39.338Z,18.83
2022-08-28T02:15:44.401Z,21.45
2022-08-28T02:20:47.747Z,20.25
2022-08-28T02:25:52.649Z,19.48
2022-08-28T02:30:56.781Z,19.23
2022-08-28T02:36:00.232Z,16.17
2022-08-28T02:41:05.571Z,13.55
2022-08-28T02:46:09.188Z,12.73
2022-08-28T02:51:14.457Z,15.55
2022-08-28T02:56:19.592Z,16.67
2022-08-28T03:01:22.938Z,17.45
2022-08-28T03:06:26.204Z,19.65
2022-08-28T03:11:30.933Z,18.17
2022-08-28T03:16:34.852Z,17.63
2022-08-28T03:21:38.279Z,17.55
2022-08-28T03:26:43.100Z,20.52
2022-08-28T03:31:46.283Z,20.98
2022-08-28T03:36:49.921Z,20.17
2022-08-28T03:41:54.456Z,21.35
2022-08-28T03:46:57.909Z,22.73
2022-08-28T03:52:01.317Z,20.88
2022-08-28T03:57:06.364Z,17.25
2022-08-28T04:02:09.959Z,17.30
2022-08-28T04:07:13.402Z,19.60
2022-08-28T04:12:18.767Z,19.77
2022-08-28T04:17:22.132Z,20.98
2022-08-28T04:22:25.489Z,19.10
2022-08-28T04:27:30.348Z,17.88
2022-08-28T04:32:35.783Z,19.98
2022-08-28T04:37:39.768Z,20.65
2022-08-28T04:42:45.242Z,21.55
2022-08-28T04:47:49.097Z,20.48
2022-08-28T04:52:53.251Z,19.30
2022-08-28T04:57:58.037Z,20.33
2022-08-28T05:03:01.344Z,20.45
2022-08-28T05:08:04.770Z,19.42
2022-08-28T05:13:09.954Z,19.65
2022-08-28T05:18:14.389Z,21.13
2022-08-28T05:23:18.291Z,19.10
2022-08-28T05:28:24.498Z,19.35
2022-08-28T05:33:27.831Z,18.40
2022-08-28T05:38:31.036Z,17.83
2022-08-28T05:43:37.071Z,19.17
2022-08-28T05:48:42.027Z,18.42
2022-08-28T05:53:46.385Z,23.02
2022-08-28T05:58:51.231Z,22.35
2022-08-28T06:03:57.010Z,21.38
2022-08-28T06:09:02.603Z,19.38
2022-08-28T06:14:11.062Z,18.92
2022-08-28T06:19:14.984Z,19.42
2022-08-28T06:24:18.794Z,18.60
2022-08-28T06:29:23.550Z,18.85
2022-08-28T06:34:29.625Z,18.27
2022-08-28T06:39:46.280Z,17.65
2022-08-28T06:44:50.958Z,17.40
2022-08-28T06:49:54.644Z,17.08
2022-08-28T06:54:58.476Z,16.10
2022-08-28T07:00:03.911Z,16.02
2022-08-28T07:05:08.787Z,17.27
2022-08-28T07:10:12.379Z,17.00
2022-08-28T07:15:17.179Z,15.55
2022-08-28T07:20:20.559Z,14.95
2022-08-28T07:25:26.860Z,14.55
2022-08-28T07:30:31.635Z,14.80
2022-08-28T07:35:34.998Z,12.95
2022-08-28T07:40:38.221Z,12.95
2022-08-28T07:45:43.601Z,13.43
2022-08-28T07:50:46.975Z,12.23
2022-08-28T07:55:51.647Z,13.70
2022-08-28T08:00:56.420Z,12.93
2022-08-28T08:06:03.128Z,13.25
2022-08-28T08:11:08.475Z,12.60
2022-08-28T08:16:19.055Z,11.13
2022-08-28T08:21:26.137Z,11.52
2022-08-28T08:26:33.191Z,11.73
2022-08-28T08:31:38.017Z,10.02
2022-08-28T08:36:46.003Z,9.98
2022-08-28T08:41:52.764Z,9.90
2022-08-28T08:47:14.147Z,10.73
2022-08-28T08:52:31.873Z,9.75
2022-08-28T08:57:38.244Z,8.43
2022-08-28T09:02:49.459Z,8.90
2022-08-28T09:07:57.851Z,8.30
2022-08-28T09:13:12.778Z,8.77
2022-08-28T09:18:22.444Z,8.57
2022-08-28T09:23:27.125Z,8.52
2022-08-28T09:28:35.841Z,7.65
2022-08-28T09:33:45.013Z,8.43
2022-08-28T09:38:48.260Z,9.30
2022-08-28T09:43:51.678Z,9.25
2022-08-28T09:49:10.385Z,9.15
2022-08-28T09:54:20.250Z,7.47
2022-08-28T09:59:25.917Z,8.80
2022-08-28T10:04:52.631Z,8.23
2022-08-28T10:10:07.595Z,7.03
2022-08-28T10:15:18.165Z,6.53
2022-08-28T10:20:31.371Z,6.78
2022-08-28T10:25:44.153Z,7.13
2022-08-28T10:31:03.360Z,5.95
2022-08-28T10:36:33.958Z,6.45
2022-08-28T10:41:43.945Z,6.63
2022-08-28T10:46:53.642Z,6.18
2022-08-28T10:52:04.601Z,6.95
2022-08-28T10:57:18.198Z,6.47
2022-08-28T11:02:25.811Z,6.10
2022-08-28T11:07:36.349Z,5.22
2022-08-28T11:12:44.246Z,4.80
2022-08-28T11:17:48.327Z,4.90
2022-08-28T11:22:57.772Z,5.57
2022-08-28T11:28:18.855Z,4.65
2022-08-28T11:33:47.817Z,4.15
2022-08-28T11:39:22.905Z,4.63
2022-08-28T11:44:29.744Z,5.05
2022-08-28T11:49:43.362Z,4.53
2022-08-28T11:54:57.957Z,5.10
2022-08-28T12:00:09.570Z,4.30
2022-08-28T12:05:34.394Z,4.30
2022-08-28T12:10:59.658Z,3.72
2022-08-28T12:16:08.128Z,3.95
2022-08-28T12:21:17.423Z,3.83
2022-08-28T12:26:26.310Z,4.20
2022-08-28T12:32:15.122Z,4.22
2022-08-28T12:37:51.250Z,4.97
2022-08-28T12:43:00.598Z,5.07
2022-08-28T12:48:14.239Z,4.20
2022-08-28T12:53:19.636Z,4.13
2022-08-28T12:58:34.042Z,4.53
2022-08-28T13:03:44.453Z,4.18
2022-08-28T13:08:50.360Z,4.45
2022-08-28T13:14:04.467Z,4.43
2022-08-28T13:19:25.758Z,4.40
2022-08-28T13:24:42.606Z,4.20
2022-08-28T13:30:02.885Z,4.65
2022-08-28T13:35:33.159Z,4.15
2022-08-28T13:41:03.109Z,4.10
2022-08-28T13:46:08.118Z,4.45
2022-08-28T13:51:20.947Z,3.90
2022-08-28T13:56:25.944Z,4.10
2022-08-28T14:02:05.710Z,4.07
2022-08-28T14:07:29.482Z,3.92
2022-08-28T14:12:41.835Z,5.13
2022-08-28T14:17:55.483Z,3.55
2022-08-28T14:23:05.930Z,4.07
2022-08-28T14:28:26.198Z,3.63
2022-08-28T14:33:36.839Z,3.55
2022-08-28T14:38:41.538Z,4.20
2022-08-28T14:43:45.944Z,4.18
2022-08-28T14:48:53.831Z,4.38
2022-08-28T14:54:01.012Z,4.18
2022-08-28T14:59:06.751Z,4.45
2022-08-28T15:04:14.852Z,4.30
2022-08-28T15:09:20.328Z,4.03
2022-08-28T15:14:25.964Z,3.78
2022-08-28T15:19:30.900Z,3.90
2022-08-28T15:24:45.457Z,4.18
2022-08-28T15:29:48.862Z,4.13
2022-08-28T15:34:53.867Z,4.28
2022-08-28T15:40:23.014Z,4.05
2022-08-28T15:45:28.742Z,4.30
2022-08-28T15:50:44.858Z,4.10
2022-08-28T15:55:57.371Z,4.85
2022-08-28T16:01:08.039Z,4.10
2022-08-28T16:06:14.480Z,3.90
2022-08-28T16:11:41.115Z,3.75
2022-08-28T16:16:46.474Z,4.25
2022-08-28T16:22:14.889Z,4.22
2022-08-28T16:27:45.672Z,4.10
2022-08-28T16:32:54.730Z,3.97
2022-08-28T16:38:40.560Z,4.50
2022-08-28T16:43:52.684Z,3.97
2022-08-28T16:49:02.846Z,3.70
2022-08-28T16:54:15.240Z,3.83
2022-08-28T16:59:23.408Z,3.75
2022-08-28T17:04:29.056Z,3.95
2022-08-28T17:09:33.135Z,2.95
2022-08-28T17:14:39.051Z,3.58
2022-08-28T17:19:43.426Z,3.17
2022-08-28T17:24:56.057Z,3.42
2022-08-28T17:30:01.721Z,3.63
2022-08-28T17:35:07.090Z,4.07
2022-08-28T17:40:13.709Z,4.28
2022-08-28T17:45:18.645Z,4.03
2022-08-28T17:50:23.270Z,3.17
2022-08-28T17:55:27.609Z,3.00
2022-08-28T18:00:33.574Z,3.30
2022-08-28T18:05:41.212Z,3.13
2022-08-28T18:10:44.473Z,3.50
2022-08-28T18:15:56.585Z,3.35
2022-08-28T18:21:01.775Z,3.65
2022-08-28T18:26:06.416Z,3.15
2022-08-28T18:31:12.313Z,3.10
2022-08-28T18:36:23.634Z,3.65
2022-08-28T18:41:34.517Z,3.40
2022-08-28T18:46:48.822Z,3.35
2022-08-28T18:51:52.388Z,3.58
2022-08-28T18:57:01.440Z,3.85
2022-08-28T19:02:10.239Z,3.63
2022-08-28T19:07:19.121Z,4.35
2022-08-28T19:12:22.569Z,3.58
2022-08-28T19:17:30.347Z,3.90
2022-08-28T19:22:40.006Z,3.70
2022-08-28T19:27:44.339Z,3.95
2022-08-28T19:32:56.754Z,4.38
2022-08-28T19:38:00.109Z,4.03
2022-08-28T19:43:03.589Z,4.18
2022-08-28T19:48:13.014Z,3.85
2022-08-28T19:53:22.424Z,3.95
2022-08-28T19:58:25.776Z,4.85
2022-08-28T20:03:36.427Z,4.25
2022-08-28T20:08:40.045Z,5.00
2022-08-28T20:13:48.532Z,4.85
2022-08-28T20:18:54.535Z,4.25
2022-08-28T20:23:57.865Z,4.65
2022-08-28T20:29:01.175Z,4.82
2022-08-28T20:34:06.136Z,4.95
2022-08-28T20:39:10.284Z,5.15
2022-08-28T20:44:17.070Z,4.60
2022-08-28T20:49:23.049Z,5.80
2022-08-28T20:54:29.850Z,4.97
2022-08-28T20:59:39.932Z,5.35
2022-08-28T21:04:48.101Z,5.38
2022-08-28T21:10:05.610Z,5.10
2022-08-28T21:15:13.684Z,6.25
2022-08-28T21:20:20.173Z,5.28
2022-08-28T21:25:25.221Z,5.18
2022-08-28T21:30:30.664Z,5.40
2022-08-28T21:35:35.639Z,5.75
2022-08-28T21:40:40.977Z,5.18
2022-08-28T21:45:45.121Z,5.45
2022-08-28T21:50:50.004Z,5.45
2022-08-28T21:55:57.114Z,5.45
2022-08-28T22:01:01.136Z,5.85
2022-08-28T22:06:10.909Z,5.55
2022-08-28T22:11:14.813Z,5.68
2022-08-28T22:16:20.433Z,5.63
2022-08-28T22:21:44.597Z,5.95
2022-08-28T22:26:48.067Z,5.45
2022-08-28T22:31:51.480Z,6.20
2022-08-28T22:36:56.139Z,5.28
2022-08-28T22:41:59.630Z,5.55
2022-08-28T22:47:03.284Z,5.97
2022-08-28T22:52:11.188Z,6.40
2022-08-28T22:57:14.513Z,5.70
2022-08-28T23:02:19.245Z,5.53
2022-08-28T23:07:24.103Z,5.75
2022-08-28T23:12:30.732Z,6.05
2022-08-28T23:17:34.120Z,5.97
2022-08-28T23:22:38.913Z,6.43
2022-08-28T23:27:43.919Z,6.55
2022-08-28T23:32:48.467Z,6.88
2022-08-28T23:37:54.495Z,7.65
2022-08-28T23:42:58.424Z,7.68
2022-08-28T23:48:02.544Z,7.45
2022-08-28T23:53:12.333Z,8.15
2022-08-28T23:58:15.984Z,7.63
